Terminal Aerodrome Forecast
Issued by NWS

Home | Current Version | Previous Version | Text Only | Print | Product List | Glossary On
Versions: 1 2 3 4 5 6 7 8 9 10 11 12 13 14 15 16 17 18 19
000
FTAK31 PANC 122114 CCA
TAFAVD
TAF COR
PAVD 122114Z 1221/1318 VRB03KT 5SM -SHRA BR SCT002 BKN015
      TEMPO 1221/1223 1SM BR BKN002
     FM122300 VRB03KT 6SM -SHRA BR SCT015 BKN030
     FM130300 VRB03KT P6SM VCSH SCT035 BKN070
     FM131700 VRB03KT 6SM -RA BKN030
      AMD LTD TO CLD VIS AND WIND=

USA.gov is the U.S. government's official web portal to all federal, state and local government web resources and services.